EGNS/IOM METAR and TAF weather

Enter ICAO airport designator
Station Type Date Time Source
EGNS METAR 2019/12/08 13:50 UTC NOAA

EGNS 081350Z 25030G43KT 9999 FEW022 BKN028 08/03 Q0988 NOSIG


Station Type Date Time Source
EGNS Decoded METAR 2019/12/08 13:50 UTC NOAA

Isle Of Man / Ronaldsway Airport, United Kingdom (EGNS) 54-05N 004-38W 0M
Dec 08, 2019 - 08:50 AM EST / 2019.12.08 1350 UTC
Wind: from the WSW (250 degrees) at 35 MPH (30 KT) gusting to 49 MPH (43 KT):0
Visibility: greater than 7 mile(s):0
Sky conditions: mostly cloudy
Temperature: 46 F (8 C)
Dew Point: 37 F (3 C)
Relative Humidity: 70%
Pressure (altimeter): 29.18 in. Hg (0988 hPa)
ob: EGNS 081350Z 25030G43KT 9999 FEW022 BKN028 08/03 Q0988 NOSIG
cycle: 14

Station Type Date Time Source
EGNS TAF 2019/01/16 05:00 UTC NOAA

TAF EGNS 160500 Z 1606/1615 28020KT 9999 FEW010 BKN025
TEMPO 1606/1609 6000 RA BKN010 PROB30
TEMPO 1613/1615 7000 -SHRA

Example: see airport list